sensor_id;sensor_type;location;lat;lon;timestamp;P1;durP1;ratioP1;P2;durP2;ratioP2
53666;SDS011;39568;51.026;5.468;2023-04-24T00:00:19;12.15;;;5.85;;
53666;SDS011;39568;51.026;5.468;2023-04-24T00:02:46;8.20;;;5.70;;
53666;SDS011;39568;51.026;5.468;2023-04-24T00:05:16;8.52;;;7.35;;
53666;SDS011;39568;51.026;5.468;2023-04-24T00:07:43;7.82;;;5.50;;
53666;SDS011;39568;51.026;5.468;2023-04-24T00:10:14;7.73;;;5.43;;
53666;SDS011;39568;51.026;5.468;2023-04-24T00:12:40;12.48;;;6.38;;
53666;SDS011;39568;51.026;5.468;2023-04-24T00:15:09;10.02;;;6.38;;
53666;SDS011;39568;51.026;5.468;2023-04-24T00:17:37;22.00;;;7.97;;
53666;SDS011;39568;51.026;5.468;2023-04-24T00:20:08;19.08;;;7.80;;
53666;SDS011;39568;51.026;5.468;2023-04-24T00:22:36;16.25;;;8.38;;
53666;SDS011;39568;51.026;5.468;2023-04-24T00:25:03;18.00;;;9.50;;
53666;SDS011;39568;51.026;5.468;2023-04-24T00:27:30;20.63;;;11.00;;
53666;SDS011;39568;51.026;5.468;2023-04-24T00:29:57;20.02;;;8.82;;
53666;SDS011;39568;51.026;5.468;2023-04-24T00:32:29;22.73;;;11.43;;
53666;SDS011;39568;51.026;5.468;2023-04-24T00:34:56;11.70;;;9.65;;
53666;SDS011;39568;51.026;5.468;2023-04-24T00:37:24;21.98;;;11.82;;
53666;SDS011;39568;51.026;5.468;2023-04-24T00:39:51;18.58;;;7.50;;
53666;SDS011;39568;51.026;5.468;2023-04-24T00:42:17;19.40;;;8.75;;
53666;SDS011;39568;51.026;5.468;2023-04-24T00:44:44;14.98;;;8.45;;
53666;SDS011;39568;51.026;5.468;2023-04-24T00:47:11;13.88;;;8.70;;
53666;SDS011;39568;51.026;5.468;2023-04-24T00:49:40;14.95;;;7.75;;
53666;SDS011;39568;51.026;5.468;2023-04-24T00:52:07;10.25;;;6.47;;
53666;SDS011;39568;51.026;5.468;2023-04-24T00:54:35;18.08;;;10.60;;
53666;SDS011;39568;51.026;5.468;2023-04-24T00:57:03;17.95;;;8.77;;
53666;SDS011;39568;51.026;5.468;2023-04-24T00:59:38;22.80;;;10.07;;
53666;SDS011;39568;51.026;5.468;2023-04-24T01:02:06;20.27;;;11.55;;
53666;SDS011;39568;51.026;5.468;2023-04-24T01:04:33;14.00;;;9.35;;
53666;SDS011;39568;51.026;5.468;2023-04-24T01:07:02;20.63;;;10.02;;
53666;SDS011;39568;51.026;5.468;2023-04-24T01:09:35;23.90;;;12.82;;
53666;SDS011;39568;51.026;5.468;2023-04-24T01:12:02;16.67;;;11.77;;
53666;SDS011;39568;51.026;5.468;2023-04-24T01:14:31;23.60;;;9.90;;
53666;SDS011;39568;51.026;5.468;2023-04-24T01:16:57;30.38;;;15.02;;
53666;SDS011;39568;51.026;5.468;2023-04-24T01:19:25;19.88;;;12.93;;
53666;SDS011;39568;51.026;5.468;2023-04-24T01:21:53;21.98;;;12.70;;
53666;SDS011;39568;51.026;5.468;2023-04-24T01:24:24;12.63;;;8.90;;
53666;SDS011;39568;51.026;5.468;2023-04-24T01:26:53;31.55;;;14.25;;
53666;SDS011;39568;51.026;5.468;2023-04-24T01:29:20;20.10;;;10.10;;
53666;SDS011;39568;51.026;5.468;2023-04-24T01:31:47;17.92;;;10.98;;
53666;SDS011;39568;51.026;5.468;2023-04-24T01:34:13;26.48;;;13.18;;
53666;SDS011;39568;51.026;5.468;2023-04-24T01:36:40;18.08;;;10.90;;
53666;SDS011;39568;51.026;5.468;2023-04-24T01:39:08;15.82;;;9.52;;
53666;SDS011;39568;51.026;5.468;2023-04-24T01:41:40;17.98;;;12.00;;
53666;SDS011;39568;51.026;5.468;2023-04-24T01:44:08;25.27;;;10.73;;
53666;SDS011;39568;51.026;5.468;2023-04-24T01:46:35;15.68;;;9.50;;
53666;SDS011;39568;51.026;5.468;2023-04-24T01:49:02;13.63;;;9.43;;
53666;SDS011;39568;51.026;5.468;2023-04-24T01:51:29;14.63;;;11.00;;
53666;SDS011;39568;51.026;5.468;2023-04-24T01:53:56;26.65;;;13.25;;
53666;SDS011;39568;51.026;5.468;2023-04-24T01:56:26;21.95;;;10.90;;
53666;SDS011;39568;51.026;5.468;2023-04-24T01:59:07;23.95;;;12.13;;
53666;SDS011;39568;51.026;5.468;2023-04-24T02:01:39;17.77;;;9.18;;
53666;SDS011;39568;51.026;5.468;2023-04-24T02:04:06;23.45;;;12.30;;
53666;SDS011;39568;51.026;5.468;2023-04-24T02:06:34;24.27;;;14.85;;
53666;SDS011;39568;51.026;5.468;2023-04-24T02:09:01;21.35;;;10.20;;
53666;SDS011;39568;51.026;5.468;2023-04-24T02:11:30;28.75;;;11.38;;
53666;SDS011;39568;51.026;5.468;2023-04-24T02:13:57;13.80;;;11.23;;
53666;SDS011;39568;51.026;5.468;2023-04-24T02:16:25;22.08;;;13.07;;
53666;SDS011;39568;51.026;5.468;2023-04-24T02:18:52;19.85;;;13.00;;
53666;SDS011;39568;51.026;5.468;2023-04-24T02:21:19;30.25;;;14.60;;
53666;SDS011;39568;51.026;5.468;2023-04-24T02:23:46;27.35;;;12.77;;
53666;SDS011;39568;51.026;5.468;2023-04-24T02:26:17;16.00;;;14.07;;
53666;SDS011;39568;51.026;5.468;2023-04-24T02:28:44;27.33;;;16.23;;
53666;SDS011;39568;51.026;5.468;2023-04-24T02:31:11;16.30;;;12.48;;
53666;SDS011;39568;51.026;5.468;2023-04-24T02:33:39;23.85;;;16.48;;
53666;SDS011;39568;51.026;5.468;2023-04-24T02:36:06;20.08;;;10.55;;
53666;SDS011;39568;51.026;5.468;2023-04-24T02:38:32;26.35;;;15.52;;
53666;SDS011;39568;51.026;5.468;2023-04-24T02:41:00;22.90;;;16.00;;
53666;SDS011;39568;51.026;5.468;2023-04-24T02:43:28;12.60;;;10.82;;
53666;SDS011;39568;51.026;5.468;2023-04-24T02:45:55;18.50;;;12.90;;
53666;SDS011;39568;51.026;5.468;2023-04-24T02:48:22;15.20;;;10.07;;
53666;SDS011;39568;51.026;5.468;2023-04-24T02:50:52;25.45;;;12.70;;
53666;SDS011;39568;51.026;5.468;2023-04-24T02:53:19;22.55;;;11.77;;
53666;SDS011;39568;51.026;5.468;2023-04-24T02:55:46;20.38;;;11.00;;
53666;SDS011;39568;51.026;5.468;2023-04-24T02:58:12;22.73;;;13.82;;
53666;SDS011;39568;51.026;5.468;2023-04-24T03:00:39;18.65;;;12.30;;
53666;SDS011;39568;51.026;5.468;2023-04-24T03:03:06;14.68;;;8.25;;
53666;SDS011;39568;51.026;5.468;2023-04-24T03:05:33;23.25;;;12.57;;
53666;SDS011;39568;51.026;5.468;2023-04-24T03:10:34;21.02;;;12.77;;
53666;SDS011;39568;51.026;5.468;2023-04-24T03:13:03;12.93;;;7.70;;
53666;SDS011;39568;51.026;5.468;2023-04-24T03:15:30;15.55;;;10.10;;
53666;SDS011;39568;51.026;5.468;2023-04-24T03:17:57;20.08;;;13.15;;
53666;SDS011;39568;51.026;5.468;2023-04-24T03:20:23;17.25;;;11.00;;
53666;SDS011;39568;51.026;5.468;2023-04-24T03:22:50;14.30;;;10.38;;
53666;SDS011;39568;51.026;5.468;2023-04-24T03:25:18;17.08;;;12.50;;
53666;SDS011;39568;51.026;5.468;2023-04-24T03:27:45;24.23;;;12.18;;
53666;SDS011;39568;51.026;5.468;2023-04-24T03:30:19;21.55;;;11.95;;
53666;SDS011;39568;51.026;5.468;2023-04-24T03:32:51;25.20;;;15.77;;
53666;SDS011;39568;51.026;5.468;2023-04-24T03:35:19;21.85;;;12.32;;
53666;SDS011;39568;51.026;5.468;2023-04-24T03:37:47;25.60;;;15.02;;
53666;SDS011;39568;51.026;5.468;2023-04-24T03:40:14;29.55;;;16.15;;
53666;SDS011;39568;51.026;5.468;2023-04-24T03:42:43;21.85;;;13.40;;
53666;SDS011;39568;51.026;5.468;2023-04-24T03:45:09;35.65;;;16.13;;
53666;SDS011;39568;51.026;5.468;2023-04-24T03:47:36;21.52;;;12.93;;
53666;SDS011;39568;51.026;5.468;2023-04-24T03:50:09;28.15;;;17.85;;
53666;SDS011;39568;51.026;5.468;2023-04-24T03:52:36;23.33;;;13.55;;
53666;SDS011;39568;51.026;5.468;2023-04-24T03:55:09;24.50;;;12.43;;
53666;SDS011;39568;51.026;5.468;2023-04-24T03:57:38;30.40;;;17.38;;
53666;SDS011;39568;51.026;5.468;2023-04-24T04:00:06;29.23;;;17.73;;
53666;SDS011;39568;51.026;5.468;2023-04-24T04:02:36;17.58;;;11.52;;
53666;SDS011;39568;51.026;5.468;2023-04-24T04:05:02;28.00;;;15.95;;
53666;SDS011;39568;51.026;5.468;2023-04-24T04:07:30;18.10;;;12.30;;
53666;SDS011;39568;51.026;5.468;2023-04-24T04:09:56;26.00;;;15.73;;
53666;SDS011;39568;51.026;5.468;2023-04-24T04:12:23;20.50;;;12.73;;
53666;SDS011;39568;51.026;5.468;2023-04-24T04:14:50;22.30;;;13.95;;
53666;SDS011;39568;51.026;5.468;2023-04-24T04:17:18;29.25;;;14.40;;
53666;SDS011;39568;51.026;5.468;2023-04-24T04:19:44;28.30;;;14.82;;
53666;SDS011;39568;51.026;5.468;2023-04-24T04:22:11;24.35;;;14.90;;
53666;SDS011;39568;51.026;5.468;2023-04-24T04:24:38;30.83;;;13.77;;
53666;SDS011;39568;51.026;5.468;2023-04-24T04:27:05;25.50;;;14.85;;
53666;SDS011;39568;51.026;5.468;2023-04-24T04:29:33;19.88;;;14.10;;
53666;SDS011;39568;51.026;5.468;2023-04-24T04:32:07;21.55;;;13.20;;
53666;SDS011;39568;51.026;5.468;2023-04-24T04:34:35;28.33;;;14.38;;
53666;SDS011;39568;51.026;5.468;2023-04-24T04:37:02;22.50;;;13.15;;
53666;SDS011;39568;51.026;5.468;2023-04-24T04:39:30;18.55;;;10.25;;
53666;SDS011;39568;51.026;5.468;2023-04-24T04:41:57;13.20;;;11.60;;
53666;SDS011;39568;51.026;5.468;2023-04-24T04:44:27;25.55;;;14.10;;
53666;SDS011;39568;51.026;5.468;2023-04-24T04:46:58;19.60;;;11.90;;
53666;SDS011;39568;51.026;5.468;2023-04-24T04:49:25;11.95;;;10.18;;
53666;SDS011;39568;51.026;5.468;2023-04-24T04:51:54;16.45;;;10.30;;
53666;SDS011;39568;51.026;5.468;2023-04-24T04:54:24;22.98;;;12.00;;
53666;SDS011;39568;51.026;5.468;2023-04-24T04:56:52;16.95;;;9.15;;
53666;SDS011;39568;51.026;5.468;2023-04-24T04:59:19;18.40;;;9.43;;
53666;SDS011;39568;51.026;5.468;2023-04-24T05:01:51;19.42;;;8.48;;
53666;SDS011;39568;51.026;5.468;2023-04-24T05:04:18;15.13;;;9.40;;
53666;SDS011;39568;51.026;5.468;2023-04-24T05:06:48;14.38;;;8.52;;
53666;SDS011;39568;51.026;5.468;2023-04-24T05:09:18;18.10;;;8.52;;
53666;SDS011;39568;51.026;5.468;2023-04-24T05:11:45;9.82;;;8.82;;
53666;SDS011;39568;51.026;5.468;2023-04-24T05:14:11;14.77;;;11.63;;
53666;SDS011;39568;51.026;5.468;2023-04-24T05:16:43;11.77;;;8.13;;
53666;SDS011;39568;51.026;5.468;2023-04-24T05:19:10;9.45;;;8.40;;
53666;SDS011;39568;51.026;5.468;2023-04-24T05:21:39;12.45;;;7.93;;
53666;SDS011;39568;51.026;5.468;2023-04-24T05:24:05;16.75;;;8.23;;
53666;SDS011;39568;51.026;5.468;2023-04-24T05:26:34;15.02;;;7.18;;
53666;SDS011;39568;51.026;5.468;2023-04-24T05:29:03;11.98;;;7.38;;
53666;SDS011;39568;51.026;5.468;2023-04-24T05:31:30;14.75;;;8.00;;
53666;SDS011;39568;51.026;5.468;2023-04-24T05:33:57;7.82;;;5.22;;
53666;SDS011;39568;51.026;5.468;2023-04-24T05:36:23;6.97;;;6.07;;
53666;SDS011;39568;51.026;5.468;2023-04-24T05:38:54;7.97;;;5.78;;
53666;SDS011;39568;51.026;5.468;2023-04-24T05:41:21;7.90;;;5.70;;
53666;SDS011;39568;51.026;5.468;2023-04-24T05:43:49;6.32;;;5.10;;
53666;SDS011;39568;51.026;5.468;2023-04-24T05:46:19;28.42;;;6.63;;
53666;SDS011;39568;51.026;5.468;2023-04-24T05:48:46;5.65;;;5.10;;
53666;SDS011;39568;51.026;5.468;2023-04-24T05:51:12;4.22;;;3.88;;
53666;SDS011;39568;51.026;5.468;2023-04-24T05:53:39;6.30;;;4.40;;
53666;SDS011;39568;51.026;5.468;2023-04-24T05:56:06;3.63;;;3.15;;
53666;SDS011;39568;51.026;5.468;2023-04-24T05:58:32;5.30;;;3.80;;
53666;SDS011;39568;51.026;5.468;2023-04-24T06:01:01;9.52;;;4.15;;
53666;SDS011;39568;51.026;5.468;2023-04-24T06:03:31;4.57;;;3.97;;
53666;SDS011;39568;51.026;5.468;2023-04-24T06:05:57;7.80;;;4.28;;
53666;SDS011;39568;51.026;5.468;2023-04-24T06:08:24;5.15;;;4.78;;
53666;SDS011;39568;51.026;5.468;2023-04-24T06:10:51;8.88;;;5.60;;
53666;SDS011;39568;51.026;5.468;2023-04-24T06:13:18;8.60;;;5.95;;
53666;SDS011;39568;51.026;5.468;2023-04-24T06:15:45;6.53;;;5.95;;
53666;SDS011;39568;51.026;5.468;2023-04-24T06:18:14;9.10;;;8.20;;
53666;SDS011;39568;51.026;5.468;2023-04-24T06:20:40;16.35;;;8.95;;
53666;SDS011;39568;51.026;5.468;2023-04-24T06:23:08;14.48;;;11.18;;
53666;SDS011;39568;51.026;5.468;2023-04-24T06:25:35;12.48;;;7.38;;
53666;SDS011;39568;51.026;5.468;2023-04-24T06:28:01;6.78;;;6.18;;
53666;SDS011;39568;51.026;5.468;2023-04-24T06:30:28;16.80;;;10.50;;
53666;SDS011;39568;51.026;5.468;2023-04-24T06:32:56;13.73;;;10.88;;
53666;SDS011;39568;51.026;5.468;2023-04-24T06:35:28;14.35;;;10.13;;
53666;SDS011;39568;51.026;5.468;2023-04-24T06:37:54;14.90;;;9.60;;
53666;SDS011;39568;51.026;5.468;2023-04-24T06:40:21;13.98;;;10.23;;
53666;SDS011;39568;51.026;5.468;2023-04-24T06:42:48;24.60;;;8.93;;
53666;SDS011;39568;51.026;5.468;2023-04-24T06:45:18;9.05;;;6.85;;
53666;SDS011;39568;51.026;5.468;2023-04-24T06:47:44;22.25;;;8.88;;
53666;SDS011;39568;51.026;5.468;2023-04-24T06:50:11;21.92;;;11.43;;
53666;SDS011;39568;51.026;5.468;2023-04-24T06:52:43;16.50;;;7.78;;
53666;SDS011;39568;51.026;5.468;2023-04-24T06:55:10;22.23;;;10.30;;
53666;SDS011;39568;51.026;5.468;2023-04-24T06:57:38;14.82;;;7.38;;
53666;SDS011;39568;51.026;5.468;2023-04-24T07:02:37;12.05;;;10.55;;
53666;SDS011;39568;51.026;5.468;2023-04-24T07:05:04;13.10;;;6.63;;
53666;SDS011;39568;51.026;5.468;2023-04-24T07:07:31;11.38;;;8.32;;
53666;SDS011;39568;51.026;5.468;2023-04-24T07:10:00;17.48;;;12.25;;
53666;SDS011;39568;51.026;5.468;2023-04-24T07:12:29;12.85;;;6.25;;
53666;SDS011;39568;51.026;5.468;2023-04-24T07:17:27;25.02;;;9.57;;
53666;SDS011;39568;51.026;5.468;2023-04-24T07:19:53;15.80;;;9.70;;
53666;SDS011;39568;51.026;5.468;2023-04-24T07:22:20;15.98;;;9.25;;
53666;SDS011;39568;51.026;5.468;2023-04-24T07:24:47;15.30;;;8.63;;
53666;SDS011;39568;51.026;5.468;2023-04-24T07:27:15;13.82;;;7.03;;
53666;SDS011;39568;51.026;5.468;2023-04-24T07:29:42;11.48;;;8.43;;
53666;SDS011;39568;51.026;5.468;2023-04-24T07:32:09;17.13;;;9.73;;
53666;SDS011;39568;51.026;5.468;2023-04-24T07:34:36;16.88;;;8.73;;
53666;SDS011;39568;51.026;5.468;2023-04-24T07:37:02;7.32;;;6.72;;
53666;SDS011;39568;51.026;5.468;2023-04-24T07:39:29;14.45;;;8.10;;
53666;SDS011;39568;51.026;5.468;2023-04-24T07:41:57;11.90;;;8.73;;
53666;SDS011;39568;51.026;5.468;2023-04-24T07:44:26;12.23;;;4.65;;
53666;SDS011;39568;51.026;5.468;2023-04-24T07:46:52;11.70;;;5.70;;
53666;SDS011;39568;51.026;5.468;2023-04-24T07:49:23;4.82;;;4.32;;
53666;SDS011;39568;51.026;5.468;2023-04-24T07:51:50;6.40;;;5.85;;
53666;SDS011;39568;51.026;5.468;2023-04-24T07:54:17;7.97;;;5.63;;
53666;SDS011;39568;51.026;5.468;2023-04-24T07:56:43;13.15;;;7.20;;
53666;SDS011;39568;51.026;5.468;2023-04-24T07:59:10;16.27;;;7.80;;
53666;SDS011;39568;51.026;5.468;2023-04-24T08:01:38;20.88;;;8.35;;
53666;SDS011;39568;51.026;5.468;2023-04-24T08:04:05;10.07;;;5.03;;
53666;SDS011;39568;51.026;5.468;2023-04-24T08:06:32;9.93;;;4.65;;
53666;SDS011;39568;51.026;5.468;2023-04-24T08:08:59;5.88;;;5.20;;
53666;SDS011;39568;51.026;5.468;2023-04-24T08:11:26;6.35;;;5.75;;
53666;SDS011;39568;51.026;5.468;2023-04-24T08:13:53;9.73;;;6.10;;
53666;SDS011;39568;51.026;5.468;2023-04-24T08:16:19;10.30;;;6.32;;
53666;SDS011;39568;51.026;5.468;2023-04-24T08:18:47;6.38;;;5.22;;
53666;SDS011;39568;51.026;5.468;2023-04-24T08:21:14;13.48;;;7.53;;
53666;SDS011;39568;51.026;5.468;2023-04-24T08:23:42;16.83;;;8.55;;
53666;SDS011;39568;51.026;5.468;2023-04-24T08:26:09;19.92;;;5.03;;
53666;SDS011;39568;51.026;5.468;2023-04-24T08:28:36;5.68;;;4.70;;
53666;SDS011;39568;51.026;5.468;2023-04-24T08:31:03;12.98;;;6.65;;
53666;SDS011;39568;51.026;5.468;2023-04-24T08:33:30;11.23;;;8.35;;
53666;SDS011;39568;51.026;5.468;2023-04-24T08:36:01;5.95;;;4.95;;
53666;SDS011;39568;51.026;5.468;2023-04-24T08:38:32;4.88;;;4.43;;
53666;SDS011;39568;51.026;5.468;2023-04-24T08:41:00;8.95;;;4.97;;
53666;SDS011;39568;51.026;5.468;2023-04-24T08:43:29;6.20;;;5.60;;
53666;SDS011;39568;51.026;5.468;2023-04-24T08:45:59;16.27;;;5.80;;
53666;SDS011;39568;51.026;5.468;2023-04-24T08:48:34;8.95;;;5.50;;
53666;SDS011;39568;51.026;5.468;2023-04-24T08:51:05;5.93;;;4.18;;
53666;SDS011;39568;51.026;5.468;2023-04-24T08:53:33;11.57;;;5.45;;
53666;SDS011;39568;51.026;5.468;2023-04-24T08:56:01;8.20;;;4.65;;
53666;SDS011;39568;51.026;5.468;2023-04-24T08:58:28;14.63;;;7.10;;
53666;SDS011;39568;51.026;5.468;2023-04-24T09:00:56;4.30;;;3.92;;
53666;SDS011;39568;51.026;5.468;2023-04-24T09:03:26;23.95;;;5.93;;
53666;SDS011;39568;51.026;5.468;2023-04-24T09:05:53;14.20;;;4.45;;
53666;SDS011;39568;51.026;5.468;2023-04-24T09:08:23;11.18;;;3.65;;
53666;SDS011;39568;51.026;5.468;2023-04-24T09:10:51;8.52;;;5.43;;
53666;SDS011;39568;51.026;5.468;2023-04-24T09:13:19;7.47;;;5.10;;
53666;SDS011;39568;51.026;5.468;2023-04-24T09:15:46;11.63;;;4.45;;
53666;SDS011;39568;51.026;5.468;2023-04-24T09:18:13;19.50;;;6.25;;
53666;SDS011;39568;51.026;5.468;2023-04-24T09:23:27;22.70;;;5.53;;
53666;SDS011;39568;51.026;5.468;2023-04-24T09:25:55;22.80;;;6.28;;
53666;SDS011;39568;51.026;5.468;2023-04-24T09:28:25;5.70;;;4.13;;
53666;SDS011;39568;51.026;5.468;2023-04-24T09:31:02;2.45;;;2.28;;
53666;SDS011;39568;51.026;5.468;2023-04-24T09:33:30;5.60;;;4.05;;
53666;SDS011;39568;51.026;5.468;2023-04-24T09:35:57;17.80;;;4.63;;
53666;SDS011;39568;51.026;5.468;2023-04-24T09:38:31;11.07;;;5.65;;
53666;SDS011;39568;51.026;5.468;2023-04-24T09:41:01;17.02;;;5.68;;
53666;SDS011;39568;51.026;5.468;2023-04-24T09:43:29;14.57;;;4.95;;
53666;SDS011;39568;51.026;5.468;2023-04-24T09:45:56;29.83;;;4.28;;
53666;SDS011;39568;51.026;5.468;2023-04-24T09:48:29;13.80;;;5.05;;
53666;SDS011;39568;51.026;5.468;2023-04-24T09:50:57;34.42;;;4.32;;
53666;SDS011;39568;51.026;5.468;2023-04-24T09:53:27;7.50;;;3.40;;
53666;SDS011;39568;51.026;5.468;2023-04-24T09:56:01;19.67;;;3.53;;
53666;SDS011;39568;51.026;5.468;2023-04-24T09:58:34;6.60;;;4.10;;
53666;SDS011;39568;51.026;5.468;2023-04-24T10:01:01;23.88;;;5.80;;
53666;SDS011;39568;51.026;5.468;2023-04-24T10:03:29;15.25;;;6.15;;
53666;SDS011;39568;51.026;5.468;2023-04-24T10:05:58;13.63;;;6.90;;
53666;SDS011;39568;51.026;5.468;2023-04-24T10:08:27;12.35;;;4.63;;
53666;SDS011;39568;51.026;5.468;2023-04-24T10:11:07;19.27;;;4.95;;
53666;SDS011;39568;51.026;5.468;2023-04-24T10:13:36;19.08;;;5.50;;
53666;SDS011;39568;51.026;5.468;2023-04-24T10:16:03;6.82;;;2.92;;
53666;SDS011;39568;51.026;5.468;2023-04-24T10:18:30;16.27;;;4.55;;
53666;SDS011;39568;51.026;5.468;2023-04-24T10:20:57;9.43;;;3.50;;
53666;SDS011;39568;51.026;5.468;2023-04-24T10:23:26;25.65;;;4.32;;
53666;SDS011;39568;51.026;5.468;2023-04-24T10:25:54;14.30;;;4.93;;
53666;SDS011;39568;51.026;5.468;2023-04-24T10:28:22;10.35;;;5.60;;
53666;SDS011;39568;51.026;5.468;2023-04-24T10:30:51;7.13;;;2.90;;
53666;SDS011;39568;51.026;5.468;2023-04-24T10:33:25;12.02;;;4.53;;
53666;SDS011;39568;51.026;5.468;2023-04-24T10:35:55;8.63;;;4.93;;
53666;SDS011;39568;51.026;5.468;2023-04-24T10:38:24;16.48;;;6.07;;
53666;SDS011;39568;51.026;5.468;2023-04-24T10:40:57;12.90;;;4.93;;
53666;SDS011;39568;51.026;5.468;2023-04-24T10:43:34;10.48;;;4.57;;
53666;SDS011;39568;51.026;5.468;2023-04-24T10:46:02;10.40;;;6.25;;
53666;SDS011;39568;51.026;5.468;2023-04-24T10:48:33;18.30;;;5.97;;
53666;SDS011;39568;51.026;5.468;2023-04-24T10:51:00;10.18;;;4.80;;
53666;SDS011;39568;51.026;5.468;2023-04-24T10:53:28;6.82;;;2.85;;
53666;SDS011;39568;51.026;5.468;2023-04-24T10:55:59;12.90;;;3.25;;
53666;SDS011;39568;51.026;5.468;2023-04-24T10:58:37;16.52;;;3.50;;
53666;SDS011;39568;51.026;5.468;2023-04-24T11:01:05;18.88;;;4.13;;
53666;SDS011;39568;51.026;5.468;2023-04-24T11:03:34;14.57;;;4.43;;
53666;SDS011;39568;51.026;5.468;2023-04-24T11:06:06;15.27;;;3.95;;
53666;SDS011;39568;51.026;5.468;2023-04-24T11:08:39;7.97;;;4.00;;
53666;SDS011;39568;51.026;5.468;2023-04-24T11:11:12;7.72;;;3.38;;
53666;SDS011;39568;51.026;5.468;2023-04-24T11:16:33;7.10;;;2.35;;
53666;SDS011;39568;51.026;5.468;2023-04-24T11:19:04;9.07;;;3.25;;
53666;SDS011;39568;51.026;5.468;2023-04-24T11:21:33;15.55;;;4.28;;
53666;SDS011;39568;51.026;5.468;2023-04-24T11:24:24;3.28;;;2.50;;
53666;SDS011;39568;51.026;5.468;2023-04-24T11:26:56;7.88;;;3.45;;
53666;SDS011;39568;51.026;5.468;2023-04-24T11:29:46;4.18;;;2.03;;
53666;SDS011;39568;51.026;5.468;2023-04-24T11:32:14;9.98;;;3.38;;
53666;SDS011;39568;51.026;5.468;2023-04-24T11:34:48;6.05;;;2.80;;
53666;SDS011;39568;51.026;5.468;2023-04-24T11:37:16;5.05;;;3.70;;
53666;SDS011;39568;51.026;5.468;2023-04-24T11:39:49;6.72;;;3.58;;
53666;SDS011;39568;51.026;5.468;2023-04-24T11:42:17;7.75;;;2.88;;
53666;SDS011;39568;51.026;5.468;2023-04-24T11:44:46;8.23;;;3.28;;
53666;SDS011;39568;51.026;5.468;2023-04-24T11:47:13;10.55;;;3.85;;
53666;SDS011;39568;51.026;5.468;2023-04-24T11:49:40;8.32;;;3.30;;
53666;SDS011;39568;51.026;5.468;2023-04-24T11:52:07;11.10;;;2.90;;
53666;SDS011;39568;51.026;5.468;2023-04-24T11:54:34;4.15;;;2.13;;
53666;SDS011;39568;51.026;5.468;2023-04-24T11:57:03;4.43;;;1.83;;
53666;SDS011;39568;51.026;5.468;2023-04-24T11:59:35;2.55;;;2.35;;
53666;SDS011;39568;51.026;5.468;2023-04-24T12:02:03;4.00;;;2.75;;
53666;SDS011;39568;51.026;5.468;2023-04-24T12:04:38;4.32;;;1.90;;
53666;SDS011;39568;51.026;5.468;2023-04-24T12:07:07;4.88;;;1.98;;
53666;SDS011;39568;51.026;5.468;2023-04-24T12:09:40;4.22;;;1.52;;
53666;SDS011;39568;51.026;5.468;2023-04-24T12:12:08;11.20;;;2.28;;
53666;SDS011;39568;51.026;5.468;2023-04-24T12:14:41;1.15;;;1.10;;
53666;SDS011;39568;51.026;5.468;2023-04-24T12:17:10;0.80;;;0.80;;
53666;SDS011;39568;51.026;5.468;2023-04-24T12:19:44;5.75;;;3.03;;
53666;SDS011;39568;51.026;5.468;2023-04-24T12:22:14;4.20;;;2.97;;
53666;SDS011;39568;51.026;5.468;2023-04-24T12:24:55;10.77;;;3.65;;
53666;SDS011;39568;51.026;5.468;2023-04-24T12:27:23;6.90;;;1.92;;
53666;SDS011;39568;51.026;5.468;2023-04-24T12:29:55;1.30;;;1.00;;
53666;SDS011;39568;51.026;5.468;2023-04-24T12:32:24;10.32;;;2.20;;
53666;SDS011;39568;51.026;5.468;2023-04-24T12:34:57;10.95;;;3.10;;
53666;SDS011;39568;51.026;5.468;2023-04-24T12:37:25;3.25;;;2.20;;
53666;SDS011;39568;51.026;5.468;2023-04-24T12:39:58;4.95;;;2.72;;
53666;SDS011;39568;51.026;5.468;2023-04-24T12:42:26;3.10;;;2.50;;
53666;SDS011;39568;51.026;5.468;2023-04-24T12:44:55;2.75;;;1.70;;
53666;SDS011;39568;51.026;5.468;2023-04-24T12:47:25;12.65;;;3.08;;
53666;SDS011;39568;51.026;5.468;2023-04-24T12:49:52;5.15;;;3.95;;
53666;SDS011;39568;51.026;5.468;2023-04-24T12:52:20;5.13;;;3.58;;
53666;SDS011;39568;51.026;5.468;2023-04-24T12:54:48;11.23;;;4.18;;
53666;SDS011;39568;51.026;5.468;2023-04-24T12:57:16;7.20;;;3.70;;
53666;SDS011;39568;51.026;5.468;2023-04-24T12:59:43;9.82;;;3.95;;
53666;SDS011;39568;51.026;5.468;2023-04-24T13:02:10;9.57;;;4.47;;
53666;SDS011;39568;51.026;5.468;2023-04-24T13:04:38;9.27;;;4.00;;
53666;SDS011;39568;51.026;5.468;2023-04-24T13:07:05;4.40;;;2.78;;
53666;SDS011;39568;51.026;5.468;2023-04-24T13:09:34;12.50;;;3.92;;
53666;SDS011;39568;51.026;5.468;2023-04-24T13:12:00;6.18;;;2.92;;
53666;SDS011;39568;51.026;5.468;2023-04-24T13:14:27;5.25;;;3.70;;
53666;SDS011;39568;51.026;5.468;2023-04-24T13:16:55;5.07;;;2.72;;
53666;SDS011;39568;51.026;5.468;2023-04-24T13:19:23;2.72;;;2.53;;
53666;SDS011;39568;51.026;5.468;2023-04-24T13:21:51;6.75;;;3.05;;
53666;SDS011;39568;51.026;5.468;2023-04-24T13:24:20;5.50;;;3.25;;
53666;SDS011;39568;51.026;5.468;2023-04-24T13:26:49;3.47;;;2.58;;
53666;SDS011;39568;51.026;5.468;2023-04-24T13:29:16;2.97;;;2.17;;
53666;SDS011;39568;51.026;5.468;2023-04-24T13:31:43;9.32;;;3.80;;
53666;SDS011;39568;51.026;5.468;2023-04-24T13:34:09;4.85;;;2.65;;
53666;SDS011;39568;51.026;5.468;2023-04-24T13:36:36;2.75;;;1.88;;
53666;SDS011;39568;51.026;5.468;2023-04-24T13:39:05;3.40;;;3.13;;
53666;SDS011;39568;51.026;5.468;2023-04-24T13:44:01;7.03;;;2.58;;
53666;SDS011;39568;51.026;5.468;2023-04-24T13:46:28;8.73;;;3.95;;
53666;SDS011;39568;51.026;5.468;2023-04-24T13:48:55;4.03;;;3.65;;
53666;SDS011;39568;51.026;5.468;2023-04-24T13:51:25;2.40;;;2.20;;
53666;SDS011;39568;51.026;5.468;2023-04-24T13:53:52;4.32;;;3.13;;
53666;SDS011;39568;51.026;5.468;2023-04-24T13:56:21;1.63;;;1.50;;
53666;SDS011;39568;51.026;5.468;2023-04-24T13:58:48;10.98;;;3.72;;
53666;SDS011;39568;51.026;5.468;2023-04-24T14:01:15;6.40;;;1.35;;
53666;SDS011;39568;51.026;5.468;2023-04-24T14:03:42;2.63;;;1.70;;
53666;SDS011;39568;51.026;5.468;2023-04-24T14:06:12;1.80;;;1.70;;
53666;SDS011;39568;51.026;5.468;2023-04-24T14:08:39;1.42;;;1.17;;
53666;SDS011;39568;51.026;5.468;2023-04-24T14:11:06;9.05;;;2.47;;
53666;SDS011;39568;51.026;5.468;2023-04-24T14:13:38;3.33;;;2.38;;
53666;SDS011;39568;51.026;5.468;2023-04-24T14:16:06;2.47;;;1.90;;
53666;SDS011;39568;51.026;5.468;2023-04-24T14:18:32;1.35;;;1.35;;
53666;SDS011;39568;51.026;5.468;2023-04-24T14:20:59;7.47;;;3.55;;
53666;SDS011;39568;51.026;5.468;2023-04-24T14:23:26;3.40;;;2.40;;
53666;SDS011;39568;51.026;5.468;2023-04-24T14:25:53;2.13;;;1.92;;
53666;SDS011;39568;51.026;5.468;2023-04-24T14:28:20;11.55;;;3.45;;
53666;SDS011;39568;51.026;5.468;2023-04-24T14:30:49;3.60;;;3.10;;
53666;SDS011;39568;51.026;5.468;2023-04-24T14:33:15;3.20;;;2.13;;
53666;SDS011;39568;51.026;5.468;2023-04-24T14:35:42;3.17;;;1.50;;
53666;SDS011;39568;51.026;5.468;2023-04-24T14:38:09;5.45;;;2.08;;
53666;SDS011;39568;51.026;5.468;2023-04-24T14:40:36;2.13;;;1.60;;
53666;SDS011;39568;51.026;5.468;2023-04-24T14:43:03;1.98;;;1.10;;
53666;SDS011;39568;51.026;5.468;2023-04-24T14:45:38;3.75;;;1.50;;
53666;SDS011;39568;51.026;5.468;2023-04-24T14:48:07;2.47;;;1.52;;
53666;SDS011;39568;51.026;5.468;2023-04-24T14:50:36;1.52;;;1.45;;
53666;SDS011;39568;51.026;5.468;2023-04-24T14:53:03;6.15;;;2.55;;
53666;SDS011;39568;51.026;5.468;2023-04-24T14:55:30;1.83;;;1.38;;
53666;SDS011;39568;51.026;5.468;2023-04-24T14:57:59;8.73;;;1.27;;